createdAt,value
2023-01-20T00:01:37.492Z,15.07
2023-01-20T00:04:04.935Z,14.07
2023-01-20T00:06:31.579Z,13.83
2023-01-20T00:09:00.632Z,13.93
2023-01-20T00:11:28.464Z,14.73
2023-01-20T00:14:01.042Z,13.10
2023-01-20T00:16:28.621Z,12.77
2023-01-20T00:18:55.308Z,12.40
2023-01-20T00:21:22.013Z,12.20
2023-01-20T00:23:49.994Z,12.43
2023-01-20T00:26:19.269Z,12.60
2023-01-20T00:28:46.594Z,11.53
2023-01-20T00:31:19.331Z,11.57
2023-01-20T00:33:47.467Z,17.33
2023-01-20T00:36:15.791Z,18.43
2023-01-20T00:38:43.851Z,18.83
2023-01-20T00:41:10.998Z,13.17
2023-01-20T00:43:37.826Z,13.60
2023-01-20T00:46:05.637Z,11.47
2023-01-20T00:48:32.400Z,14.77
2023-01-20T00:50:59.286Z,14.53
2023-01-20T00:53:26.149Z,13.53
2023-01-20T00:55:52.923Z,13.13
2023-01-20T00:58:19.669Z,12.40
2023-01-20T01:00:53.528Z,10.97
2023-01-20T01:03:20.225Z,12.10
2023-01-20T01:05:47.375Z,16.10
2023-01-20T01:08:14.494Z,15.50
2023-01-20T01:10:41.295Z,14.43
2023-01-20T01:13:08.275Z,12.90
2023-01-20T01:15:35.257Z,13.23
2023-01-20T01:18:02.130Z,11.90
2023-01-20T01:20:29.811Z,12.00
2023-01-20T01:22:56.527Z,11.37
2023-01-20T01:25:23.694Z,11.27
2023-01-20T01:27:50.272Z,12.23
2023-01-20T01:30:17.127Z,12.60
2023-01-20T01:32:43.695Z,12.50
2023-01-20T01:35:10.353Z,12.93
2023-01-20T01:37:37.347Z,13.47
2023-01-20T01:40:04.489Z,12.90
2023-01-20T01:42:31.193Z,11.63
2023-01-20T01:45:13.430Z,10.83
2023-01-20T01:47:42.919Z,11.20
2023-01-20T01:50:15.008Z,11.43
2023-01-20T01:52:45.229Z,10.87
2023-01-20T01:55:13.348Z,10.65
2023-01-20T01:57:40.647Z,10.37
2023-01-20T02:00:08.137Z,10.67
2023-01-20T02:02:36.110Z,10.50
2023-01-20T02:05:03.939Z,10.43
2023-01-20T02:07:33.503Z,11.17
2023-01-20T02:10:01.516Z,12.27
2023-01-20T02:12:29.606Z,11.47
2023-01-20T02:14:59.604Z,10.60
2023-01-20T02:17:30.931Z,11.35
2023-01-20T02:20:28.787Z,11.17
2023-01-20T02:22:55.487Z,11.03
2023-01-20T02:26:04.216Z,11.13
2023-01-20T02:28:30.857Z,10.40
2023-01-20T02:31:19.276Z,11.00
2023-01-20T02:34:07.732Z,11.43
2023-01-20T02:36:45.216Z,10.97
2023-01-20T02:39:26.896Z,12.40
2023-01-20T02:42:01.351Z,12.60
2023-01-20T02:44:27.934Z,13.63
2023-01-20T02:47:04.155Z,12.50
2023-01-20T02:49:36.894Z,12.70
2023-01-20T02:52:10.602Z,12.33
2023-01-20T02:54:41.279Z,12.30
2023-01-20T02:59:43.951Z,11.95
2023-01-20T03:02:16.047Z,12.87
2023-01-20T03:04:53.445Z,13.20
2023-01-20T03:07:23.813Z,11.50
2023-01-20T03:09:53.702Z,11.75
2023-01-20T03:12:29.880Z,11.70
2023-01-20T03:14:56.914Z,12.77
2023-01-20T03:17:23.582Z,10.80
2023-01-20T03:19:50.377Z,11.03
2023-01-20T03:22:18.083Z,11.53
2023-01-20T03:24:47.714Z,11.57
2023-01-20T03:27:14.458Z,12.17
2023-01-20T03:29:41.052Z,11.93
2023-01-20T03:32:09.901Z,11.47
2023-01-20T03:34:39.565Z,11.50
2023-01-20T03:37:07.390Z,11.83
2023-01-20T03:39:39.943Z,12.67
2023-01-20T03:42:09.235Z,12.17
2023-01-20T03:44:48.066Z,11.70
2023-01-20T03:47:28.586Z,12.67
2023-01-20T03:50:16.012Z,12.02
2023-01-20T03:53:07.371Z,12.67
2023-01-20T03:55:43.504Z,12.27
2023-01-20T03:58:17.960Z,13.10
2023-01-20T04:00:48.388Z,13.03
2023-01-20T04:03:26.859Z,11.60
2023-01-20T04:05:54.364Z,13.40
2023-01-20T04:08:24.895Z,13.07
2023-01-20T04:10:52.998Z,12.40
2023-01-20T04:13:19.783Z,12.83
2023-01-20T04:15:46.840Z,13.07
2023-01-20T04:18:19.374Z,13.83
2023-01-20T04:20:49.241Z,12.60
2023-01-20T04:24:02.481Z,11.90
2023-01-20T04:26:29.136Z,11.80
2023-01-20T04:28:55.809Z,13.10
2023-01-20T04:31:30.604Z,12.60
2023-01-20T04:33:57.973Z,13.77
2023-01-20T04:36:24.686Z,13.50
2023-01-20T04:38:51.330Z,13.53
2023-01-20T04:41:18.069Z,19.70
2023-01-20T04:43:52.644Z,22.73
2023-01-20T04:46:19.370Z,15.40
2023-01-20T04:48:46.393Z,15.43
2023-01-20T04:51:13.130Z,13.60
2023-01-20T04:53:39.966Z,13.03
2023-01-20T04:56:15.754Z,30.57
2023-01-20T04:58:43.339Z,24.00
2023-01-20T05:01:10.196Z,17.50
2023-01-20T05:03:37.072Z,19.07
2023-01-20T05:06:03.867Z,23.17
2023-01-20T05:08:30.577Z,18.10
2023-01-20T05:10:57.196Z,17.50
2023-01-20T05:13:23.940Z,14.70
2023-01-20T05:15:50.577Z,15.23
2023-01-20T05:18:17.227Z,13.37
2023-01-20T05:20:48.736Z,11.17
2023-01-20T05:23:16.346Z,11.43
2023-01-20T05:25:42.948Z,11.33
2023-01-20T05:28:11.854Z,9.33
2023-01-20T05:30:38.413Z,7.93
2023-01-20T05:33:05.187Z,8.30
2023-01-20T05:35:31.756Z,10.17
2023-01-20T05:37:58.288Z,8.20
2023-01-20T05:40:24.947Z,8.90
2023-01-20T05:42:51.556Z,9.10
2023-01-20T05:45:18.096Z,8.40
2023-01-20T05:47:44.763Z,8.03
2023-01-20T05:50:11.794Z,8.23
2023-01-20T05:52:38.490Z,8.30
2023-01-20T05:55:06.020Z,7.63
2023-01-20T05:57:32.694Z,8.77
2023-01-20T05:59:59.266Z,7.37
2023-01-20T06:02:26.353Z,7.43
2023-01-20T06:04:52.922Z,7.37
2023-01-20T06:07:19.465Z,7.77
2023-01-20T06:09:46.164Z,8.17
2023-01-20T06:12:12.804Z,8.47
2023-01-20T06:14:39.366Z,8.40
2023-01-20T06:17:06.036Z,8.10
2023-01-20T06:19:32.642Z,9.03
2023-01-20T06:21:59.243Z,7.67
2023-01-20T06:24:25.887Z,7.90
2023-01-20T06:26:52.768Z,8.20
2023-01-20T06:29:19.447Z,9.37
2023-01-20T06:31:46.531Z,8.47
2023-01-20T06:34:13.635Z,8.17
2023-01-20T06:36:40.265Z,7.80
2023-01-20T06:39:08.068Z,8.20
2023-01-20T06:41:34.633Z,8.10
2023-01-20T06:44:01.490Z,8.70
2023-01-20T06:46:28.107Z,9.17
2023-01-20T06:49:00.763Z,8.07
2023-01-20T06:51:29.736Z,8.50
2023-01-20T06:53:57.748Z,8.63
2023-01-20T06:56:25.620Z,8.03
2023-01-20T06:58:52.315Z,8.37
2023-01-20T07:01:23.285Z,9.00
2023-01-20T07:03:50.000Z,9.00
2023-01-20T07:06:31.460Z,8.50
2023-01-20T07:08:59.126Z,9.50
2023-01-20T07:11:26.269Z,9.57
2023-01-20T07:13:52.902Z,9.87
2023-01-20T07:16:19.702Z,11.10
2023-01-20T07:18:50.914Z,10.13
2023-01-20T07:21:17.993Z,10.37
2023-01-20T07:23:45.212Z,11.57
2023-01-20T07:26:14.818Z,11.93
2023-01-20T07:28:41.817Z,11.50
2023-01-20T07:31:12.992Z,12.27
2023-01-20T07:33:39.905Z,11.53
2023-01-20T07:36:08.395Z,11.83
2023-01-20T07:38:35.555Z,11.70
2023-01-20T07:41:10.775Z,11.33
2023-01-20T07:43:37.743Z,11.03
2023-01-20T07:46:05.348Z,11.73
2023-01-20T07:48:33.528Z,11.17
2023-01-20T07:51:03.235Z,11.23
2023-01-20T07:53:30.276Z,11.35
2023-01-20T07:55:56.942Z,10.77
2023-01-20T07:58:23.659Z,11.30
2023-01-20T08:00:50.271Z,11.73
2023-01-20T08:03:16.836Z,11.87
2023-01-20T08:05:43.614Z,11.47
2023-01-20T08:08:10.157Z,11.97
2023-01-20T08:10:37.285Z,11.13
2023-01-20T08:13:04.606Z,11.67
2023-01-20T08:15:31.210Z,11.67
2023-01-20T08:17:59.422Z,11.20
2023-01-20T08:20:27.099Z,11.63
2023-01-20T08:22:53.771Z,10.90
2023-01-20T08:25:20.470Z,11.47
2023-01-20T08:27:49.105Z,11.67
2023-01-20T08:30:15.905Z,12.10
2023-01-20T08:32:42.434Z,11.73
2023-01-20T08:35:09.369Z,15.20
2023-01-20T08:37:37.227Z,12.53
2023-01-20T08:40:09.136Z,11.20
2023-01-20T08:42:39.457Z,11.57
2023-01-20T08:47:44.455Z,10.90
2023-01-20T08:50:12.987Z,11.07
2023-01-20T08:52:40.935Z,12.00
2023-01-20T08:55:08.215Z,11.27
2023-01-20T08:57:35.167Z,10.67
2023-01-20T09:00:02.792Z,10.30
2023-01-20T09:02:29.598Z,10.60
2023-01-20T09:04:56.325Z,9.87
2023-01-20T09:07:23.956Z,11.20
2023-01-20T09:09:50.564Z,10.50
2023-01-20T09:12:17.205Z,10.97
2023-01-20T09:14:43.977Z,11.13
2023-01-20T09:17:11.497Z,11.77
2023-01-20T09:19:38.077Z,11.73
2023-01-20T09:22:04.889Z,11.40
2023-01-20T09:24:31.963Z,11.70
2023-01-20T09:26:58.619Z,11.93
2023-01-20T09:29:29.304Z,10.70
2023-01-20T09:32:03.911Z,10.50
2023-01-20T09:34:31.052Z,10.97
2023-01-20T09:37:22.640Z,11.20
2023-01-20T09:40:08.509Z,11.33
2023-01-20T09:43:14.856Z,10.60
2023-01-20T09:45:50.068Z,10.80
2023-01-20T09:48:49.954Z,9.70
2023-01-20T09:51:47.379Z,10.80
2023-01-20T09:54:20.502Z,9.33
2023-01-20T09:56:49.668Z,9.83
2023-01-20T09:59:27.681Z,9.70
2023-01-20T10:02:00.411Z,9.37
2023-01-20T10:04:34.011Z,9.40
2023-01-20T10:07:12.908Z,9.00
2023-01-20T10:10:03.075Z,9.30
2023-01-20T10:12:34.013Z,8.70
2023-01-20T10:15:09.706Z,8.70
2023-01-20T10:17:43.277Z,9.43
2023-01-20T10:20:21.166Z,9.40
2023-01-20T10:22:53.584Z,9.00
2023-01-20T10:25:45.349Z,9.00
2023-01-20T10:28:32.386Z,7.97
2023-01-20T10:31:03.303Z,8.67
2023-01-20T10:33:40.583Z,8.90
2023-01-20T10:36:15.274Z,7.87
2023-01-20T10:38:56.233Z,8.10
2023-01-20T10:41:45.713Z,7.77
2023-01-20T10:44:13.948Z,8.90
2023-01-20T10:46:59.110Z,8.10
2023-01-20T10:49:30.330Z,8.60
2023-01-20T10:52:32.516Z,9.20
2023-01-20T10:55:19.237Z,8.70
2023-01-20T10:57:59.906Z,9.47
2023-01-20T11:02:59.199Z,8.63
2023-01-20T11:05:29.686Z,9.27
2023-01-20T11:07:59.155Z,9.32
2023-01-20T11:10:28.667Z,9.37
2023-01-20T11:12:59.730Z,9.73
2023-01-20T11:15:33.523Z,9.43
2023-01-20T11:18:15.263Z,10.53
2023-01-20T11:20:54.574Z,10.40
2023-01-20T11:23:48.339Z,10.67
2023-01-20T11:26:21.006Z,10.17
2023-01-20T11:29:11.643Z,10.07
2023-01-20T11:34:17.668Z,10.43
2023-01-20T11:36:46.806Z,10.10
2023-01-20T11:39:28.933Z,10.43
2023-01-20T11:42:23.768Z,10.53
2023-01-20T11:45:19.863Z,10.20
2023-01-20T11:48:00.946Z,10.73
2023-01-20T11:50:40.207Z,9.93
2023-01-20T11:53:31.622Z,11.43
2023-01-20T11:56:14.040Z,10.90
2023-01-20T11:59:03.308Z,10.23
2023-01-20T12:01:50.863Z,11.67
2023-01-20T12:04:35.450Z,12.50
2023-01-20T12:07:14.451Z,11.23
2023-01-20T12:09:46.216Z,11.20
2023-01-20T12:12:49.579Z,12.33
2023-01-20T12:15:25.875Z,10.90
2023-01-20T12:18:00.019Z,11.60
2023-01-20T12:20:45.631Z,10.07
2023-01-20T12:23:36.225Z,11.20
2023-01-20T12:26:06.818Z,11.53
2023-01-20T12:31:24.142Z,10.53
2023-01-20T12:36:42.020Z,10.17
2023-01-20T12:39:46.951Z,10.30
2023-01-20T12:42:52.390Z,11.03
2023-01-20T12:45:37.517Z,9.90
2023-01-20T12:48:31.355Z,10.87
2023-01-20T12:50:58.075Z,11.00
2023-01-20T12:53:56.096Z,10.93
2023-01-20T12:56:47.455Z,10.93
2023-01-20T12:59:36.786Z,11.10
2023-01-20T13:02:19.025Z,11.27
2023-01-20T13:04:48.571Z,11.87
2023-01-20T13:07:31.756Z,11.37
2023-01-20T13:10:16.127Z,10.83
2023-01-20T13:12:48.246Z,11.63
2023-01-20T13:15:26.194Z,12.73
2023-01-20T13:18:08.216Z,11.77
2023-01-20T13:20:38.220Z,12.77
2023-01-20T13:23:06.006Z,13.00
2023-01-20T13:25:34.893Z,12.93
2023-01-20T13:28:03.162Z,13.63
2023-01-20T13:30:54.468Z,12.30
2023-01-20T13:33:37.903Z,13.27
2023-01-20T13:36:19.948Z,13.30
2023-01-20T13:38:49.350Z,12.00
2023-01-20T13:41:47.240Z,11.73
2023-01-20T13:44:46.351Z,12.20
2023-01-20T13:47:50.193Z,12.30
2023-01-20T13:50:32.080Z,12.50
2023-01-20T13:53:28.293Z,13.77
2023-01-20T13:55:57.444Z,13.67
2023-01-20T13:58:34.737Z,12.40
2023-01-20T14:01:07.838Z,14.77
2023-01-20T14:03:36.615Z,12.97
2023-01-20T14:06:12.198Z,13.43
2023-01-20T14:08:43.002Z,13.03
2023-01-20T14:11:21.909Z,13.13
2023-01-20T14:13:54.415Z,13.87
2023-01-20T14:16:33.792Z,14.37
2023-01-20T14:19:05.600Z,15.00
2023-01-20T14:21:40.995Z,15.73
2023-01-20T14:24:26.489Z,14.07
2023-01-20T14:27:11.912Z,14.57
2023-01-20T14:29:39.473Z,15.87
2023-01-20T14:32:26.155Z,15.10
2023-01-20T14:34:53.687Z,15.53
2023-01-20T14:37:23.656Z,16.00
2023-01-20T14:39:51.391Z,16.50
2023-01-20T14:42:20.596Z,15.57
2023-01-20T14:44:49.104Z,15.57
2023-01-20T14:47:23.641Z,13.00
2023-01-20T14:49:52.142Z,13.40
2023-01-20T14:52:30.845Z,13.93
2023-01-20T14:54:57.823Z,12.47
2023-01-20T14:57:40.775Z,13.30
2023-01-20T15:00:22.941Z,12.53
2023-01-20T15:03:05.291Z,12.53
2023-01-20T15:05:38.652Z,11.37
2023-01-20T15:08:25.306Z,10.53
2023-01-20T15:11:16.600Z,10.53
2023-01-20T15:16:47.553Z,10.03
2023-01-20T15:19:14.600Z,9.60
2023-01-20T15:21:44.176Z,10.30
2023-01-20T15:24:15.830Z,10.03
2023-01-20T15:26:43.809Z,10.03
2023-01-20T15:29:25.739Z,9.30
2023-01-20T15:31:54.725Z,9.07
2023-01-20T15:34:21.977Z,9.37
2023-01-20T15:36:50.366Z,9.67
2023-01-20T15:39:19.927Z,9.77
2023-01-20T15:41:55.928Z,10.03
2023-01-20T15:44:26.902Z,9.63
2023-01-20T15:46:57.013Z,11.03
2023-01-20T15:49:25.580Z,10.30
2023-01-20T15:51:53.361Z,10.47
2023-01-20T15:54:20.011Z,9.70
2023-01-20T15:56:46.983Z,10.47
2023-01-20T15:59:15.661Z,10.97
2023-01-20T16:01:42.532Z,10.47
2023-01-20T16:04:10.165Z,9.80
2023-01-20T16:06:37.677Z,10.57
2023-01-20T16:09:16.903Z,10.20
2023-01-20T16:11:43.513Z,9.10
2023-01-20T16:14:10.105Z,10.13
2023-01-20T16:16:36.771Z,10.30
2023-01-20T16:19:04.781Z,9.83
2023-01-20T16:21:31.326Z,9.07
2023-01-20T16:23:57.944Z,10.10
2023-01-20T16:26:29.105Z,9.83
2023-01-20T16:28:57.845Z,11.57
2023-01-20T16:31:25.896Z,11.90
2023-01-20T16:33:53.220Z,11.23
2023-01-20T16:36:22.456Z,10.77
2023-01-20T16:38:49.896Z,11.10
2023-01-20T16:41:27.897Z,11.90
2023-01-20T16:43:55.449Z,11.00
2023-01-20T16:46:27.657Z,11.20
2023-01-20T16:49:03.103Z,10.93
2023-01-20T16:51:32.653Z,12.47
2023-01-20T16:53:59.987Z,10.37
2023-01-20T16:56:29.074Z,10.83
2023-01-20T16:58:57.879Z,11.13
2023-01-20T17:01:33.357Z,10.67
2023-01-20T17:04:02.154Z,11.33
2023-01-20T17:06:31.651Z,11.07
2023-01-20T17:08:59.901Z,9.73
2023-01-20T17:11:34.944Z,11.53
2023-01-20T17:14:03.784Z,10.80
2023-01-20T17:16:31.252Z,10.23
2023-01-20T17:19:00.278Z,10.47
2023-01-20T17:21:30.480Z,9.97
2023-01-20T17:24:00.523Z,10.00
2023-01-20T17:26:27.725Z,10.02
2023-01-20T17:28:59.623Z,9.10
2023-01-20T17:31:29.206Z,10.03
2023-01-20T17:33:55.785Z,10.07
2023-01-20T17:36:23.115Z,9.30
2023-01-20T17:38:49.945Z,9.30
2023-01-20T17:41:16.709Z,8.70
2023-01-20T17:43:46.594Z,9.13
2023-01-20T17:46:13.462Z,8.90
2023-01-20T17:48:40.188Z,9.70
2023-01-20T17:51:32.932Z,10.00
2023-01-20T17:54:03.213Z,9.20
2023-01-20T17:58:56.941Z,7.43
2023-01-20T18:01:32.078Z,8.40
2023-01-20T18:03:59.998Z,7.90
2023-01-20T18:06:28.085Z,7.73
2023-01-20T18:08:57.677Z,7.23
2023-01-20T18:11:27.097Z,7.73
2023-01-20T18:13:55.966Z,7.50
2023-01-20T18:16:26.360Z,7.33
2023-01-20T18:18:58.541Z,6.72
2023-01-20T18:21:29.881Z,7.77
2023-01-20T18:23:57.894Z,7.37
2023-01-20T18:26:26.488Z,7.33
2023-01-20T18:28:54.678Z,7.50
2023-01-20T18:31:23.255Z,6.50
2023-01-20T18:33:58.065Z,7.17
2023-01-20T18:36:30.466Z,7.07
2023-01-20T18:39:04.173Z,6.57
2023-01-20T18:41:32.575Z,5.90
2023-01-20T18:43:59.729Z,6.40
2023-01-20T18:46:27.604Z,7.00
2023-01-20T18:48:55.577Z,6.50
2023-01-20T18:51:25.013Z,6.77
2023-01-20T18:54:01.013Z,5.53
2023-01-20T18:56:29.191Z,6.30
2023-01-20T18:58:56.706Z,5.70
2023-01-20T19:01:26.661Z,6.37
2023-01-20T19:03:54.033Z,6.15
2023-01-20T19:06:32.248Z,6.03
2023-01-20T19:08:59.734Z,6.77
2023-01-20T19:11:35.858Z,5.83
2023-01-20T19:14:03.254Z,5.47
2023-01-20T19:16:37.795Z,5.80
2023-01-20T19:19:06.619Z,5.73
2023-01-20T19:21:34.146Z,5.30
2023-01-20T19:24:05.943Z,5.80
2023-01-20T19:26:37.678Z,5.30
2023-01-20T19:29:07.696Z,5.40
2023-01-20T19:31:37.307Z,5.85
2023-01-20T19:34:04.624Z,5.00
2023-01-20T19:36:33.430Z,5.47
2023-01-20T19:39:01.316Z,5.30
2023-01-20T19:41:31.924Z,5.87
2023-01-20T19:44:00.201Z,5.22
2023-01-20T19:46:29.985Z,5.40
2023-01-20T19:48:58.726Z,5.07
2023-01-20T19:51:26.565Z,5.37
2023-01-20T19:53:58.581Z,4.90
2023-01-20T19:56:28.277Z,4.60
2023-01-20T19:58:55.861Z,5.37
2023-01-20T20:01:26.076Z,4.80
2023-01-20T20:03:54.510Z,4.45
2023-01-20T20:06:25.970Z,5.00
2023-01-20T20:08:54.145Z,5.10
2023-01-20T20:11:20.817Z,5.00
2023-01-20T20:13:47.381Z,5.20
2023-01-20T20:16:14.105Z,5.20
2023-01-20T20:18:41.017Z,4.80
2023-01-20T20:21:08.640Z,4.83
2023-01-20T20:23:35.352Z,4.90
2023-01-20T20:26:02.168Z,4.87
2023-01-20T20:28:29.448Z,5.17
2023-01-20T20:30:56.417Z,5.23
2023-01-20T20:33:26.584Z,4.83
2023-01-20T20:35:54.415Z,4.70
2023-01-20T20:38:21.437Z,5.20
2023-01-20T20:40:48.471Z,4.60
2023-01-20T20:43:15.134Z,4.77
2023-01-20T20:45:41.959Z,5.03
2023-01-20T20:48:10.245Z,4.57
2023-01-20T20:50:36.810Z,4.83
2023-01-20T20:53:05.897Z,4.90
2023-01-20T20:55:32.689Z,5.10
2023-01-20T20:57:59.625Z,4.63
2023-01-20T21:00:28.343Z,5.10
2023-01-20T21:02:55.521Z,4.30
2023-01-20T21:05:22.427Z,4.90
2023-01-20T21:07:54.147Z,4.33
2023-01-20T21:10:21.265Z,4.60
2023-01-20T21:12:48.111Z,4.23
2023-01-20T21:15:14.706Z,4.73
2023-01-20T21:17:41.483Z,6.17
2023-01-20T21:20:09.291Z,4.63
2023-01-20T21:22:35.896Z,4.77
2023-01-20T21:25:03.968Z,4.40
2023-01-20T21:27:36.459Z,4.13
2023-01-20T21:30:03.213Z,3.80
2023-01-20T21:32:31.965Z,4.73
2023-01-20T21:35:01.965Z,4.57
2023-01-20T21:37:28.719Z,4.60
2023-01-20T21:39:56.292Z,4.47
2023-01-20T21:42:22.979Z,4.10
2023-01-20T21:44:49.573Z,4.30
2023-01-20T21:47:16.689Z,4.20
2023-01-20T21:50:02.365Z,3.63
2023-01-20T21:52:41.533Z,3.87
2023-01-20T21:55:19.359Z,4.10
2023-01-20T21:57:51.276Z,4.30
2023-01-20T22:00:18.775Z,4.10
2023-01-20T22:02:47.092Z,4.33
2023-01-20T22:05:13.825Z,3.80
2023-01-20T22:07:40.447Z,3.50
2023-01-20T22:10:07.932Z,4.27
2023-01-20T22:12:35.678Z,3.90
2023-01-20T22:15:03.505Z,4.40
2023-01-20T22:17:30.821Z,4.03
2023-01-20T22:19:57.471Z,3.90
2023-01-20T22:22:24.149Z,3.80
2023-01-20T22:24:51.004Z,3.70
2023-01-20T22:27:17.587Z,4.03
2023-01-20T22:29:44.192Z,3.40
2023-01-20T22:32:10.870Z,3.93
2023-01-20T22:34:37.411Z,3.67
2023-01-20T22:37:04.031Z,4.07
2023-01-20T22:39:31.865Z,4.00
2023-01-20T22:41:58.587Z,4.23
2023-01-20T22:44:25.236Z,3.90
2023-01-20T22:46:52.063Z,3.67
2023-01-20T22:49:18.779Z,3.87
2023-01-20T22:51:45.327Z,4.03
2023-01-20T22:54:12.138Z,7.37
2023-01-20T22:56:39.261Z,5.60
2023-01-20T22:59:06.217Z,3.83
2023-01-20T23:01:35.378Z,3.77
2023-01-20T23:04:05.321Z,3.83
2023-01-20T23:06:35.465Z,3.67
2023-01-20T23:09:08.025Z,3.90
2023-01-20T23:11:38.312Z,4.00
2023-01-20T23:14:06.377Z,3.85
2023-01-20T23:16:33.009Z,3.73
2023-01-20T23:18:59.724Z,4.03
2023-01-20T23:21:26.412Z,3.63
2023-01-20T23:23:54.938Z,3.70
2023-01-20T23:26:24.440Z,3.70
2023-01-20T23:28:53.644Z,3.70
2023-01-20T23:31:22.204Z,3.70
2023-01-20T23:33:49.160Z,3.77
2023-01-20T23:36:20.523Z,3.60
2023-01-20T23:38:47.241Z,3.80
2023-01-20T23:41:14.546Z,3.33
2023-01-20T23:43:41.642Z,3.50
2023-01-20T23:46:08.970Z,4.47
2023-01-20T23:48:36.276Z,3.60
2023-01-20T23:51:04.152Z,3.03
2023-01-20T23:53:32.720Z,3.50
2023-01-20T23:56:02.874Z,3.10
2023-01-20T23:58:30.389Z,3.22
